sensor_id;sensor_type;location;lat;lon;timestamp;pressure;altitude;pressure_sealevel;temperature;humidity
73280;BME280;61511;49.286;9.700;2022-07-29T00:00:21;97156.97;;;20.23;46.50
73280;BME280;61511;49.286;9.700;2022-07-29T00:02:49;97159.34;;;20.16;46.15
73280;BME280;61511;49.286;9.700;2022-07-29T00:05:17;97151.78;;;20.09;46.26
73280;BME280;61511;49.286;9.700;2022-07-29T00:07:45;97152.47;;;19.98;46.82
73280;BME280;61511;49.286;9.700;2022-07-29T00:10:14;97153.72;;;19.92;46.93
73280;BME280;61511;49.286;9.700;2022-07-29T00:12:42;97152.03;;;19.87;46.54
73280;BME280;61511;49.286;9.700;2022-07-29T00:15:10;97146.53;;;19.84;47.30
73280;BME280;61511;49.286;9.700;2022-07-29T00:17:38;97139.75;;;19.78;47.89
73280;BME280;61511;49.286;9.700;2022-07-29T00:20:07;97155.34;;;19.76;48.28
73280;BME280;61511;49.286;9.700;2022-07-29T00:22:37;97145.75;;;19.75;47.98
73280;BME280;61511;49.286;9.700;2022-07-29T00:25:06;97145.28;;;19.73;47.92
73280;BME280;61511;49.286;9.700;2022-07-29T00:27:36;97145.47;;;19.67;48.04
73280;BME280;61511;49.286;9.700;2022-07-29T00:30:05;97152.72;;;19.67;48.11
73280;BME280;61511;49.286;9.700;2022-07-29T00:32:34;97152.38;;;19.68;48.50
73280;BME280;61511;49.286;9.700;2022-07-29T00:35:02;97163.09;;;19.68;48.67
73280;BME280;61511;49.286;9.700;2022-07-29T00:37:48;97164.66;;;19.69;49.30
73280;BME280;61511;49.286;9.700;2022-07-29T00:40:16;97164.22;;;19.67;49.00
73280;BME280;61511;49.286;9.700;2022-07-29T00:42:52;97162.94;;;19.65;49.43
73280;BME280;61511;49.286;9.700;2022-07-29T00:45:20;97163.09;;;19.60;49.80
73280;BME280;61511;49.286;9.700;2022-07-29T00:47:49;97152.88;;;19.53;50.13
73280;BME280;61511;49.286;9.700;2022-07-29T00:50:17;97158.22;;;19.53;50.36
73280;BME280;61511;49.286;9.700;2022-07-29T00:52:45;97149.28;;;19.49;50.90
73280;BME280;61511;49.286;9.700;2022-07-29T00:55:15;97156.81;;;19.47;50.35
73280;BME280;61511;49.286;9.700;2022-07-29T00:57:44;97144.22;;;19.39;50.73
73280;BME280;61511;49.286;9.700;2022-07-29T01:00:16;97140.25;;;19.37;51.48
73280;BME280;61511;49.286;9.700;2022-07-29T01:02:45;97140.13;;;19.33;52.00
73280;BME280;61511;49.286;9.700;2022-07-29T01:05:16;97140.75;;;19.30;52.31
73280;BME280;61511;49.286;9.700;2022-07-29T01:07:46;97138.38;;;19.20;52.38
73280;BME280;61511;49.286;9.700;2022-07-29T01:10:18;97137.28;;;19.12;52.50
73280;BME280;61511;49.286;9.700;2022-07-29T01:12:49;97140.09;;;19.07;52.29
73280;BME280;61511;49.286;9.700;2022-07-29T01:15:19;97133.19;;;18.98;52.84
73280;BME280;61511;49.286;9.700;2022-07-29T01:17:52;97125.00;;;18.85;53.05
73280;BME280;61511;49.286;9.700;2022-07-29T01:20:27;97122.00;;;18.78;53.34
73280;BME280;61511;49.286;9.700;2022-07-29T01:23:30;97122.59;;;18.75;53.37
73280;BME280;61511;49.286;9.700;2022-07-29T01:26:23;97123.22;;;18.64;54.01
73280;BME280;61511;49.286;9.700;2022-07-29T01:29:11;97127.91;;;18.58;54.81
73280;BME280;61511;49.286;9.700;2022-07-29T01:31:45;97126.47;;;18.52;55.00
73280;BME280;61511;49.286;9.700;2022-07-29T01:34:31;97121.75;;;18.49;54.83
73280;BME280;61511;49.286;9.700;2022-07-29T01:37:08;97125.06;;;18.46;54.89
73280;BME280;61511;49.286;9.700;2022-07-29T01:39:37;97122.19;;;18.42;54.97
73280;BME280;61511;49.286;9.700;2022-07-29T01:42:12;97117.00;;;18.37;55.01
73280;BME280;61511;49.286;9.700;2022-07-29T01:44:49;97122.34;;;18.37;55.07
73280;BME280;61511;49.286;9.700;2022-07-29T01:47:20;97125.50;;;18.39;54.77
73280;BME280;61511;49.286;9.700;2022-07-29T01:49:54;97121.41;;;18.42;54.63
73280;BME280;61511;49.286;9.700;2022-07-29T01:52:29;97114.97;;;18.43;54.68
73280;BME280;61511;49.286;9.700;2022-07-29T01:55:03;97118.44;;;18.43;54.45
73280;BME280;61511;49.286;9.700;2022-07-29T01:57:34;97117.34;;;18.44;54.48
73280;BME280;61511;49.286;9.700;2022-07-29T02:00:06;97116.06;;;18.42;54.77
73280;BME280;61511;49.286;9.700;2022-07-29T02:02:35;97115.28;;;18.41;54.89
73280;BME280;61511;49.286;9.700;2022-07-29T02:05:06;97120.94;;;18.40;54.90
73280;BME280;61511;49.286;9.700;2022-07-29T02:07:36;97105.81;;;18.35;55.19
73280;BME280;61511;49.286;9.700;2022-07-29T02:10:07;97106.16;;;18.34;55.61
73280;BME280;61511;49.286;9.700;2022-07-29T02:12:37;97107.84;;;18.30;55.80
73280;BME280;61511;49.286;9.700;2022-07-29T02:15:16;97111.63;;;18.29;56.10
73280;BME280;61511;49.286;9.700;2022-07-29T02:17:49;97110.22;;;18.23;56.65
73280;BME280;61511;49.286;9.700;2022-07-29T02:20:18;97109.22;;;18.19;56.67
73280;BME280;61511;49.286;9.700;2022-07-29T02:22:48;97106.69;;;18.14;56.94
73280;BME280;61511;49.286;9.700;2022-07-29T02:25:17;97111.09;;;18.10;57.24
73280;BME280;61511;49.286;9.700;2022-07-29T02:27:47;97106.03;;;17.99;57.71
73280;BME280;61511;49.286;9.700;2022-07-29T02:30:20;97102.88;;;17.97;57.61
73280;BME280;61511;49.286;9.700;2022-07-29T02:32:50;97109.28;;;17.88;57.44
73280;BME280;61511;49.286;9.700;2022-07-29T02:35:20;97098.41;;;17.84;57.48
73280;BME280;61511;49.286;9.700;2022-07-29T02:37:49;97101.84;;;17.76;58.70
73280;BME280;61511;49.286;9.700;2022-07-29T02:40:33;97103.53;;;17.72;57.87
73280;BME280;61511;49.286;9.700;2022-07-29T02:43:02;97104.63;;;17.71;58.48
73280;BME280;61511;49.286;9.700;2022-07-29T02:45:33;97100.84;;;17.72;58.29
73280;BME280;61511;49.286;9.700;2022-07-29T02:48:05;97104.63;;;17.71;58.76
73280;BME280;61511;49.286;9.700;2022-07-29T02:50:39;97106.69;;;17.74;58.64
73280;BME280;61511;49.286;9.700;2022-07-29T02:53:15;97106.03;;;17.69;59.35
73280;BME280;61511;49.286;9.700;2022-07-29T02:55:48;97098.50;;;17.71;59.13
73280;BME280;61511;49.286;9.700;2022-07-29T02:58:27;97101.47;;;17.69;58.69
73280;BME280;61511;49.286;9.700;2022-07-29T03:01:01;97108.03;;;17.63;59.37
73280;BME280;61511;49.286;9.700;2022-07-29T03:03:34;97106.06;;;17.55;60.23
73280;BME280;61511;49.286;9.700;2022-07-29T03:06:04;97105.72;;;17.48;59.92
73280;BME280;61511;49.286;9.700;2022-07-29T03:08:34;97096.75;;;17.44;60.31
73280;BME280;61511;49.286;9.700;2022-07-29T03:11:03;97098.63;;;17.43;60.36
73280;BME280;61511;49.286;9.700;2022-07-29T03:13:31;97102.09;;;17.44;61.01
73280;BME280;61511;49.286;9.700;2022-07-29T03:16:01;97095.50;;;17.41;61.13
73280;BME280;61511;49.286;9.700;2022-07-29T03:18:31;97107.53;;;17.39;61.78
73280;BME280;61511;49.286;9.700;2022-07-29T03:20:59;97106.25;;;17.36;61.78
73280;BME280;61511;49.286;9.700;2022-07-29T03:23:27;97106.38;;;17.31;61.56
73280;BME280;61511;49.286;9.700;2022-07-29T03:26:02;97106.22;;;17.28;61.91
73280;BME280;61511;49.286;9.700;2022-07-29T03:28:30;97100.50;;;17.20;62.05
73280;BME280;61511;49.286;9.700;2022-07-29T03:30:59;97100.50;;;17.20;62.67
73280;BME280;61511;49.286;9.700;2022-07-29T03:33:29;97099.25;;;17.18;62.36
73280;BME280;61511;49.286;9.700;2022-07-29T03:35:57;97099.84;;;17.15;61.89
73280;BME280;61511;49.286;9.700;2022-07-29T03:38:28;97105.47;;;17.13;62.44
73280;BME280;61511;49.286;9.700;2022-07-29T03:41:00;97105.00;;;17.11;62.22
73280;BME280;61511;49.286;9.700;2022-07-29T03:43:31;97109.34;;;17.07;62.74
73280;BME280;61511;49.286;9.700;2022-07-29T03:46:01;97102.47;;;17.06;63.48
73280;BME280;61511;49.286;9.700;2022-07-29T03:48:37;97106.69;;;17.07;63.37
73280;BME280;61511;49.286;9.700;2022-07-29T03:51:07;97108.09;;;17.05;62.75
73280;BME280;61511;49.286;9.700;2022-07-29T03:53:35;97092.38;;;17.03;62.89
73280;BME280;61511;49.286;9.700;2022-07-29T03:56:04;97104.13;;;17.02;62.59
73280;BME280;61511;49.286;9.700;2022-07-29T03:58:34;97092.78;;;16.97;62.57
73280;BME280;61511;49.286;9.700;2022-07-29T04:01:02;97093.59;;;16.97;62.07
73280;BME280;61511;49.286;9.700;2022-07-29T04:03:30;97096.88;;;16.94;63.04
73280;BME280;61511;49.286;9.700;2022-07-29T04:06:02;97099.16;;;16.87;63.15
73280;BME280;61511;49.286;9.700;2022-07-29T04:08:32;97100.84;;;16.83;63.49
73280;BME280;61511;49.286;9.700;2022-07-29T04:11:00;97101.94;;;16.82;62.56
73280;BME280;61511;49.286;9.700;2022-07-29T04:13:28;97091.75;;;16.84;63.58
73280;BME280;61511;49.286;9.700;2022-07-29T04:15:56;97110.13;;;16.86;63.45
73280;BME280;61511;49.286;9.700;2022-07-29T04:18:24;97106.06;;;16.88;63.31
73280;BME280;61511;49.286;9.700;2022-07-29T04:20:52;97097.47;;;16.91;62.96
73280;BME280;61511;49.286;9.700;2022-07-29T04:23:21;97106.41;;;16.95;63.05
73280;BME280;61511;49.286;9.700;2022-07-29T04:25:50;97096.44;;;17.01;62.59
73280;BME280;61511;49.286;9.700;2022-07-29T04:28:18;97103.53;;;17.05;62.28
73280;BME280;61511;49.286;9.700;2022-07-29T04:30:46;97096.81;;;17.08;61.55
73280;BME280;61511;49.286;9.700;2022-07-29T04:33:13;97097.00;;;17.11;62.49
73280;BME280;61511;49.286;9.700;2022-07-29T04:35:41;97103.53;;;17.05;62.34
73280;BME280;61511;49.286;9.700;2022-07-29T04:38:16;97104.50;;;17.09;61.36
73280;BME280;61511;49.286;9.700;2022-07-29T04:40:45;97109.97;;;17.04;61.51
73280;BME280;61511;49.286;9.700;2022-07-29T04:43:15;97109.22;;;17.12;60.51
73280;BME280;61511;49.286;9.700;2022-07-29T04:45:48;97107.19;;;17.09;60.86
73280;BME280;61511;49.286;9.700;2022-07-29T04:48:16;97107.06;;;17.14;61.52
73280;BME280;61511;49.286;9.700;2022-07-29T04:50:44;97110.38;;;17.20;61.66
73280;BME280;61511;49.286;9.700;2022-07-29T04:53:12;97111.06;;;17.25;60.68
73280;BME280;61511;49.286;9.700;2022-07-29T04:55:40;97111.72;;;17.31;60.77
73280;BME280;61511;49.286;9.700;2022-07-29T04:58:09;97125.44;;;17.38;61.49
73280;BME280;61511;49.286;9.700;2022-07-29T05:00:37;97117.13;;;17.40;61.12
73280;BME280;61511;49.286;9.700;2022-07-29T05:03:06;97115.59;;;17.47;60.77
73280;BME280;61511;49.286;9.700;2022-07-29T05:05:34;97122.09;;;17.55;61.04
73280;BME280;61511;49.286;9.700;2022-07-29T05:08:03;97111.81;;;17.62;60.94
73280;BME280;61511;49.286;9.700;2022-07-29T05:10:31;97117.50;;;17.69;61.08
73280;BME280;61511;49.286;9.700;2022-07-29T05:12:59;97126.16;;;17.75;61.33
73280;BME280;61511;49.286;9.700;2022-07-29T05:15:28;97123.66;;;17.78;60.58
73280;BME280;61511;49.286;9.700;2022-07-29T05:17:56;97118.38;;;17.87;60.47
73280;BME280;61511;49.286;9.700;2022-07-29T05:20:24;97117.31;;;17.96;60.83
73280;BME280;61511;49.286;9.700;2022-07-29T05:22:55;97120.03;;;18.05;60.61
73280;BME280;61511;49.286;9.700;2022-07-29T05:25:23;97115.00;;;18.12;59.85
73280;BME280;61511;49.286;9.700;2022-07-29T05:28:10;97114.88;;;18.17;58.99
73280;BME280;61511;49.286;9.700;2022-07-29T05:30:39;97117.63;;;18.34;59.00
73280;BME280;61511;49.286;9.700;2022-07-29T05:33:07;97124.28;;;18.54;59.15
73280;BME280;61511;49.286;9.700;2022-07-29T05:35:55;97129.53;;;18.76;58.02
73280;BME280;61511;49.286;9.700;2022-07-29T05:38:26;97132.88;;;18.91;57.19
73280;BME280;61511;49.286;9.700;2022-07-29T05:40:56;97133.66;;;19.00;57.36
73280;BME280;61511;49.286;9.700;2022-07-29T05:43:24;97129.09;;;19.09;57.75
73280;BME280;61511;49.286;9.700;2022-07-29T05:45:54;97128.13;;;19.05;57.45
73280;BME280;61511;49.286;9.700;2022-07-29T05:48:22;97136.31;;;19.00;57.72
73280;BME280;61511;49.286;9.700;2022-07-29T05:50:50;97127.81;;;19.23;57.70
73280;BME280;61511;49.286;9.700;2022-07-29T05:53:18;97141.06;;;19.46;56.61
73280;BME280;61511;49.286;9.700;2022-07-29T05:55:46;97141.22;;;19.66;56.18
73280;BME280;61511;49.286;9.700;2022-07-29T05:58:14;97132.34;;;19.75;56.13
73280;BME280;61511;49.286;9.700;2022-07-29T06:00:42;97132.50;;;19.78;56.40
73280;BME280;61511;49.286;9.700;2022-07-29T06:03:11;97137.34;;;20.02;56.07
73280;BME280;61511;49.286;9.700;2022-07-29T06:05:40;97139.78;;;20.16;56.27
73280;BME280;61511;49.286;9.700;2022-07-29T06:08:08;97143.91;;;20.13;56.09
73280;BME280;61511;49.286;9.700;2022-07-29T06:10:36;97150.84;;;20.14;56.24
73280;BME280;61511;49.286;9.700;2022-07-29T06:13:04;97153.00;;;20.29;56.33
73280;BME280;61511;49.286;9.700;2022-07-29T06:15:32;97154.38;;;20.44;55.72
73280;BME280;61511;49.286;9.700;2022-07-29T06:18:00;97151.94;;;20.60;55.80
73280;BME280;61511;49.286;9.700;2022-07-29T06:20:30;97152.66;;;20.69;55.29
73280;BME280;61511;49.286;9.700;2022-07-29T06:22:59;97147.78;;;20.71;55.58
73280;BME280;61511;49.286;9.700;2022-07-29T06:25:27;97153.84;;;20.80;55.83
73280;BME280;61511;49.286;9.700;2022-07-29T06:27:57;97155.13;;;20.82;54.94
73280;BME280;61511;49.286;9.700;2022-07-29T06:30:24;97145.56;;;20.94;54.37
73280;BME280;61511;49.286;9.700;2022-07-29T06:32:53;97152.31;;;21.00;54.83
73280;BME280;61511;49.286;9.700;2022-07-29T06:35:21;97152.28;;;21.08;53.41
73280;BME280;61511;49.286;9.700;2022-07-29T06:38:09;97156.69;;;21.04;54.40
73280;BME280;61511;49.286;9.700;2022-07-29T06:40:58;97150.50;;;21.12;54.12
73280;BME280;61511;49.286;9.700;2022-07-29T06:43:31;97147.88;;;21.45;54.20
73280;BME280;61511;49.286;9.700;2022-07-29T06:46:01;97151.13;;;21.51;53.28
73280;BME280;61511;49.286;9.700;2022-07-29T06:48:30;97153.56;;;21.97;52.47
73280;BME280;61511;49.286;9.700;2022-07-29T06:50:58;97145.41;;;22.06;51.51
73280;BME280;61511;49.286;9.700;2022-07-29T06:53:28;97146.88;;;22.16;52.00
73280;BME280;61511;49.286;9.700;2022-07-29T06:55:56;97152.00;;;22.08;51.33
73280;BME280;61511;49.286;9.700;2022-07-29T06:58:25;97152.47;;;22.23;51.42
73280;BME280;61511;49.286;9.700;2022-07-29T07:00:53;97156.28;;;22.22;51.73
73280;BME280;61511;49.286;9.700;2022-07-29T07:03:22;97161.63;;;22.09;51.34
73280;BME280;61511;49.286;9.700;2022-07-29T07:05:51;97173.44;;;22.17;51.43
73280;BME280;61511;49.286;9.700;2022-07-29T07:08:20;97162.69;;;22.41;51.73
73280;BME280;61511;49.286;9.700;2022-07-29T07:10:50;97169.19;;;22.65;51.24
73280;BME280;61511;49.286;9.700;2022-07-29T07:13:18;97165.59;;;23.09;49.83
73280;BME280;61511;49.286;9.700;2022-07-29T07:15:46;97172.00;;;23.05;47.68
73280;BME280;61511;49.286;9.700;2022-07-29T07:18:15;97174.66;;;23.17;47.38
73280;BME280;61511;49.286;9.700;2022-07-29T07:20:44;97166.19;;;23.70;47.39
73280;BME280;61511;49.286;9.700;2022-07-29T07:23:12;97165.97;;;23.91;44.76
73280;BME280;61511;49.286;9.700;2022-07-29T07:25:40;97167.25;;;24.41;42.93
73280;BME280;61511;49.286;9.700;2022-07-29T07:28:09;97161.16;;;25.10;42.40
73280;BME280;61511;49.286;9.700;2022-07-29T07:30:38;97164.50;;;24.88;43.02
73280;BME280;61511;49.286;9.700;2022-07-29T07:33:06;97167.91;;;24.85;42.50
73280;BME280;61511;49.286;9.700;2022-07-29T07:35:34;97167.50;;;25.18;42.41
73280;BME280;61511;49.286;9.700;2022-07-29T07:38:02;97173.72;;;25.76;40.83
73280;BME280;61511;49.286;9.700;2022-07-29T07:40:32;97168.47;;;25.45;40.66
73280;BME280;61511;49.286;9.700;2022-07-29T07:43:00;97162.16;;;25.56;41.29
73280;BME280;61511;49.286;9.700;2022-07-29T07:45:29;97165.72;;;26.02;39.88
73280;BME280;61511;49.286;9.700;2022-07-29T07:47:59;97172.94;;;25.75;40.24
73280;BME280;61511;49.286;9.700;2022-07-29T07:50:26;97169.53;;;25.79;39.35
73280;BME280;61511;49.286;9.700;2022-07-29T07:52:55;97169.28;;;25.87;39.37
73280;BME280;61511;49.286;9.700;2022-07-29T07:55:25;97166.72;;;25.94;39.40
73280;BME280;61511;49.286;9.700;2022-07-29T07:57:53;97163.88;;;26.29;39.43
73280;BME280;61511;49.286;9.700;2022-07-29T08:00:22;97166.53;;;26.26;39.28
73280;BME280;61511;49.286;9.700;2022-07-29T08:02:52;97162.19;;;26.93;38.23
73280;BME280;61511;49.286;9.700;2022-07-29T08:05:20;97167.97;;;27.48;37.31
73280;BME280;61511;49.286;9.700;2022-07-29T08:07:48;97162.84;;;26.86;37.78
73280;BME280;61511;49.286;9.700;2022-07-29T08:10:18;97167.94;;;26.65;38.38
73280;BME280;61511;49.286;9.700;2022-07-29T08:13:02;97169.56;;;27.22;37.81
73280;BME280;61511;49.286;9.700;2022-07-29T08:15:30;97166.09;;;27.52;36.50
73280;BME280;61511;49.286;9.700;2022-07-29T08:17:59;97169.25;;;28.28;36.32
73280;BME280;61511;49.286;9.700;2022-07-29T08:20:34;97173.97;;;28.82;35.38
73280;BME280;61511;49.286;9.700;2022-07-29T08:23:03;97166.38;;;29.05;34.21
73280;BME280;61511;49.286;9.700;2022-07-29T08:25:32;97172.69;;;30.52;31.18
73280;BME280;61511;49.286;9.700;2022-07-29T08:28:04;97171.09;;;30.94;30.81
73280;BME280;61511;49.286;9.700;2022-07-29T08:30:32;97169.56;;;30.86;30.29
73280;BME280;61511;49.286;9.700;2022-07-29T08:33:02;97180.97;;;32.48;27.75
73280;BME280;61511;49.286;9.700;2022-07-29T08:35:30;97170.06;;;34.25;25.36
73280;BME280;61511;49.286;9.700;2022-07-29T08:38:02;97175.97;;;34.46;24.74
73280;BME280;61511;49.286;9.700;2022-07-29T08:40:30;97176.78;;;35.56;22.97
73280;BME280;61511;49.286;9.700;2022-07-29T08:42:59;97176.16;;;35.29;23.48
73280;BME280;61511;49.286;9.700;2022-07-29T08:45:41;97182.59;;;33.31;26.43
73280;BME280;61511;49.286;9.700;2022-07-29T08:48:17;97179.81;;;32.49;27.71
73280;BME280;61511;49.286;9.700;2022-07-29T08:50:47;97176.94;;;30.82;30.47
73280;BME280;61511;49.286;9.700;2022-07-29T08:53:16;97175.47;;;29.34;32.13
73280;BME280;61511;49.286;9.700;2022-07-29T08:55:47;97165.41;;;29.49;33.67
73280;BME280;61511;49.286;9.700;2022-07-29T08:58:16;97178.09;;;30.10;31.76
73280;BME280;61511;49.286;9.700;2022-07-29T09:00:51;97172.25;;;30.04;31.62
73280;BME280;61511;49.286;9.700;2022-07-29T09:03:24;97172.53;;;29.78;32.36
73280;BME280;61511;49.286;9.700;2022-07-29T09:05:52;97168.72;;;29.97;31.93
73280;BME280;61511;49.286;9.700;2022-07-29T09:08:21;97180.50;;;32.56;28.41
73280;BME280;61511;49.286;9.700;2022-07-29T09:10:50;97174.06;;;31.53;29.53
73280;BME280;61511;49.286;9.700;2022-07-29T09:13:18;97167.22;;;30.77;30.98
73280;BME280;61511;49.286;9.700;2022-07-29T09:15:46;97168.75;;;30.14;32.11
73280;BME280;61511;49.286;9.700;2022-07-29T09:21:18;97164.91;;;32.98;27.37
73280;BME280;61511;49.286;9.700;2022-07-29T09:24:06;97161.22;;;33.15;27.44
73280;BME280;61511;49.286;9.700;2022-07-29T09:26:36;97166.28;;;31.62;29.28
73280;BME280;61511;49.286;9.700;2022-07-29T09:29:08;97172.34;;;32.53;27.54
73280;BME280;61511;49.286;9.700;2022-07-29T09:31:38;97163.78;;;34.74;24.95
73280;BME280;61511;49.286;9.700;2022-07-29T09:34:07;97167.81;;;36.08;22.68
73280;BME280;61511;49.286;9.700;2022-07-29T09:36:42;97170.81;;;37.27;21.23
73280;BME280;61511;49.286;9.700;2022-07-29T09:39:11;97170.81;;;38.82;19.49
73280;BME280;61511;49.286;9.700;2022-07-29T09:41:48;97164.41;;;35.05;24.06
73280;BME280;61511;49.286;9.700;2022-07-29T09:44:16;97172.78;;;35.97;22.21
73280;BME280;61511;49.286;9.700;2022-07-29T09:46:55;97164.72;;;38.15;20.18
73280;BME280;61511;49.286;9.700;2022-07-29T09:49:24;97163.72;;;39.50;18.81
73280;BME280;61511;49.286;9.700;2022-07-29T09:52:03;97159.81;;;36.33;22.08
73280;BME280;61511;49.286;9.700;2022-07-29T09:54:32;97153.06;;;33.79;25.63
73280;BME280;61511;49.286;9.700;2022-07-29T09:57:04;97159.50;;;35.56;24.26
73280;BME280;61511;49.286;9.700;2022-07-29T09:59:33;97152.88;;;34.47;25.39
73280;BME280;61511;49.286;9.700;2022-07-29T10:02:01;97158.75;;;36.11;23.61
73280;BME280;61511;49.286;9.700;2022-07-29T10:04:39;97149.47;;;36.53;23.27
73280;BME280;61511;49.286;9.700;2022-07-29T10:07:09;97159.63;;;36.73;22.84
73280;BME280;61511;49.286;9.700;2022-07-29T10:09:37;97160.81;;;37.46;21.42
73280;BME280;61511;49.286;9.700;2022-07-29T10:12:07;97155.00;;;36.37;22.17
73280;BME280;61511;49.286;9.700;2022-07-29T10:14:37;97160.44;;;36.05;23.31
73280;BME280;61511;49.286;9.700;2022-07-29T10:17:07;97145.94;;;35.49;24.36
73280;BME280;61511;49.286;9.700;2022-07-29T10:19:37;97146.13;;;34.98;24.52
73280;BME280;61511;49.286;9.700;2022-07-29T10:22:06;97139.13;;;32.99;27.74
73280;BME280;61511;49.286;9.700;2022-07-29T10:24:37;97151.22;;;31.98;29.02
73280;BME280;61511;49.286;9.700;2022-07-29T10:27:07;97149.06;;;33.23;27.74
73280;BME280;61511;49.286;9.700;2022-07-29T10:29:35;97142.31;;;34.46;26.07
73280;BME280;61511;49.286;9.700;2022-07-29T10:32:28;97150.94;;;32.44;28.87
73280;BME280;61511;49.286;9.700;2022-07-29T10:35:12;97151.09;;;33.12;27.67
73280;BME280;61511;49.286;9.700;2022-07-29T10:37:52;97151.84;;;33.16;28.00
73280;BME280;61511;49.286;9.700;2022-07-29T10:40:36;97147.63;;;32.71;28.26
73280;BME280;61511;49.286;9.700;2022-07-29T10:43:27;97143.09;;;34.46;25.94
73280;BME280;61511;49.286;9.700;2022-07-29T10:45:59;97144.81;;;33.19;27.10
73280;BME280;61511;49.286;9.700;2022-07-29T10:48:27;97142.81;;;33.23;27.88
73280;BME280;61511;49.286;9.700;2022-07-29T10:50:57;97142.72;;;34.68;26.52
73280;BME280;61511;49.286;9.700;2022-07-29T10:53:47;97133.78;;;34.40;25.97
73280;BME280;61511;49.286;9.700;2022-07-29T10:56:25;97130.91;;;33.67;27.85
73280;BME280;61511;49.286;9.700;2022-07-29T10:59:24;97134.09;;;33.62;27.71
73280;BME280;61511;49.286;9.700;2022-07-29T11:02:02;97137.56;;;33.96;27.36
73280;BME280;61511;49.286;9.700;2022-07-29T11:04:59;97138.16;;;33.16;28.54
73280;BME280;61511;49.286;9.700;2022-07-29T11:07:30;97133.00;;;33.86;26.67
73280;BME280;61511;49.286;9.700;2022-07-29T11:10:22;97123.03;;;35.55;25.13
73280;BME280;61511;49.286;9.700;2022-07-29T11:12:58;97124.94;;;35.58;25.16
73280;BME280;61511;49.286;9.700;2022-07-29T11:15:27;97123.56;;;35.70;24.62
73280;BME280;61511;49.286;9.700;2022-07-29T11:18:05;97115.94;;;35.94;24.00
73280;BME280;61511;49.286;9.700;2022-07-29T11:20:41;97118.91;;;36.68;23.15
73280;BME280;61511;49.286;9.700;2022-07-29T11:23:22;97120.78;;;36.99;23.76
73280;BME280;61511;49.286;9.700;2022-07-29T11:26:19;97121.75;;;37.51;22.17
73280;BME280;61511;49.286;9.700;2022-07-29T11:28:54;97121.03;;;37.05;22.41
73280;BME280;61511;49.286;9.700;2022-07-29T11:31:35;97121.44;;;34.29;25.10
73280;BME280;61511;49.286;9.700;2022-07-29T11:34:20;97129.78;;;35.70;23.15
73280;BME280;61511;49.286;9.700;2022-07-29T11:37:19;97125.44;;;36.57;22.77
73280;BME280;61511;49.286;9.700;2022-07-29T11:40:15;97114.09;;;37.00;22.66
73280;BME280;61511;49.286;9.700;2022-07-29T11:42:45;97117.00;;;36.65;23.56
73280;BME280;61511;49.286;9.700;2022-07-29T11:45:22;97112.53;;;36.38;23.53
73280;BME280;61511;49.286;9.700;2022-07-29T11:48:20;97089.63;;;35.40;24.94
73280;BME280;61511;49.286;9.700;2022-07-29T11:50:58;97089.69;;;34.97;24.96
73280;BME280;61511;49.286;9.700;2022-07-29T11:53:28;97102.84;;;34.86;25.62
73280;BME280;61511;49.286;9.700;2022-07-29T11:55:59;97097.56;;;33.75;26.03
73280;BME280;61511;49.286;9.700;2022-07-29T11:58:29;97097.88;;;34.54;27.10
73280;BME280;61511;49.286;9.700;2022-07-29T12:00:59;97110.63;;;33.61;26.10
73280;BME280;61511;49.286;9.700;2022-07-29T12:03:31;97094.66;;;33.86;26.18
73280;BME280;61511;49.286;9.700;2022-07-29T12:06:03;97088.28;;;34.66;25.30
73280;BME280;61511;49.286;9.700;2022-07-29T12:08:40;97082.56;;;34.10;25.59
73280;BME280;61511;49.286;9.700;2022-07-29T12:11:20;97081.38;;;33.27;26.81
73280;BME280;61511;49.286;9.700;2022-07-29T12:13:52;97085.78;;;32.84;27.91
73280;BME280;61511;49.286;9.700;2022-07-29T12:16:21;97085.50;;;32.71;27.88
73280;BME280;61511;49.286;9.700;2022-07-29T12:18:58;97080.50;;;31.56;29.00
73280;BME280;61511;49.286;9.700;2022-07-29T12:21:29;97074.88;;;33.75;25.83
73280;BME280;61511;49.286;9.700;2022-07-29T12:23:57;97079.63;;;34.71;25.37
73280;BME280;61511;49.286;9.700;2022-07-29T12:26:35;97071.50;;;33.91;25.24
73280;BME280;61511;49.286;9.700;2022-07-29T12:29:03;97074.13;;;33.44;26.25
73280;BME280;61511;49.286;9.700;2022-07-29T12:31:51;97064.03;;;33.03;27.34
73280;BME280;61511;49.286;9.700;2022-07-29T12:34:26;97069.94;;;32.65;27.48
73280;BME280;61511;49.286;9.700;2022-07-29T12:36:55;97062.16;;;32.97;27.05
73280;BME280;61511;49.286;9.700;2022-07-29T12:39:23;97056.03;;;32.48;27.62
73280;BME280;61511;49.286;9.700;2022-07-29T12:41:54;97066.44;;;31.68;29.01
73280;BME280;61511;49.286;9.700;2022-07-29T12:44:44;97067.06;;;31.90;28.06
73280;BME280;61511;49.286;9.700;2022-07-29T12:47:13;97056.88;;;31.24;28.42
73280;BME280;61511;49.286;9.700;2022-07-29T12:49:41;97055.53;;;30.35;28.98
73280;BME280;61511;49.286;9.700;2022-07-29T12:52:29;97056.59;;;30.97;28.61
73280;BME280;61511;49.286;9.700;2022-07-29T12:54:57;97059.59;;;31.28;29.89
73280;BME280;61511;49.286;9.700;2022-07-29T12:57:25;97063.00;;;31.46;28.16
73280;BME280;61511;49.286;9.700;2022-07-29T13:00:02;97052.47;;;31.48;28.02
73280;BME280;61511;49.286;9.700;2022-07-29T13:02:32;97052.88;;;33.25;24.84
73280;BME280;61511;49.286;9.700;2022-07-29T13:05:04;97060.94;;;33.35;23.61
73280;BME280;61511;49.286;9.700;2022-07-29T13:07:33;97061.19;;;33.75;24.98
73280;BME280;61511;49.286;9.700;2022-07-29T13:10:22;97053.22;;;34.77;22.52
73280;BME280;61511;49.286;9.700;2022-07-29T13:13:02;97053.16;;;35.40;22.06
73280;BME280;61511;49.286;9.700;2022-07-29T13:15:31;97057.63;;;35.86;21.56
73280;BME280;61511;49.286;9.700;2022-07-29T13:18:01;97056.66;;;35.76;22.98
73280;BME280;61511;49.286;9.700;2022-07-29T13:20:31;97055.72;;;35.83;22.12
73280;BME280;61511;49.286;9.700;2022-07-29T13:23:00;97049.72;;;35.16;22.82
73280;BME280;61511;49.286;9.700;2022-07-29T13:25:29;97052.19;;;35.30;23.13
73280;BME280;61511;49.286;9.700;2022-07-29T13:27:58;97052.19;;;34.01;24.75